sensor_id;sensor_type;location;lat;lon;timestamp;pressure;altitude;pressure_sealevel;temperature;humidity
13011;BME280;6786;57.632;11.962;2023-05-07T00:01:27;102201.28;;;18.96;35.07
13011;BME280;6786;57.632;11.962;2023-05-07T00:03:55;102200.44;;;18.95;35.01
13011;BME280;6786;57.632;11.962;2023-05-07T00:06:23;102195.09;;;18.95;35.00
13011;BME280;6786;57.632;11.962;2023-05-07T00:08:52;102201.28;;;18.96;35.06
13011;BME280;6786;57.632;11.962;2023-05-07T00:11:22;102192.31;;;18.97;35.02
13011;BME280;6786;57.632;11.962;2023-05-07T00:13:51;102186.19;;;18.95;35.01
13011;BME280;6786;57.632;11.962;2023-05-07T00:16:19;102190.56;;;18.96;34.98
13011;BME280;6786;57.632;11.962;2023-05-07T00:18:48;102113.19;;;18.51;34.81
13011;BME280;6786;57.632;11.962;2023-05-07T00:21:16;102072.91;;;18.24;34.90
13011;BME280;6786;57.632;11.962;2023-05-07T00:23:44;102046.28;;;18.09;34.99
13011;BME280;6786;57.632;11.962;2023-05-07T00:26:12;102170.13;;;18.81;35.04
13011;BME280;6786;57.632;11.962;2023-05-07T00:28:41;102165.72;;;18.80;35.04
13011;BME280;6786;57.632;11.962;2023-05-07T00:31:10;102190.56;;;18.96;34.97
13011;BME280;6786;57.632;11.962;2023-05-07T00:33:38;102183.88;;;18.89;34.97
13011;BME280;6786;57.632;11.962;2023-05-07T00:36:07;102179.78;;;18.83;34.99
13011;BME280;6786;57.632;11.962;2023-05-07T00:38:35;102204.94;;;18.95;34.97
13011;BME280;6786;57.632;11.962;2023-05-07T00:41:03;102123.72;;;18.40;35.18
13011;BME280;6786;57.632;11.962;2023-05-07T00:43:31;102120.63;;;18.46;35.12
13011;BME280;6786;57.632;11.962;2023-05-07T00:46:00;102186.00;;;18.84;34.95
13011;BME280;6786;57.632;11.962;2023-05-07T00:48:30;102204.94;;;18.95;34.97
13011;BME280;6786;57.632;11.962;2023-05-07T00:50:58;102194.22;;;18.95;34.85
13011;BME280;6786;57.632;11.962;2023-05-07T00:53:26;102200.44;;;18.95;34.98
13011;BME280;6786;57.632;11.962;2023-05-07T00:55:55;102201.47;;;18.93;34.97
13011;BME280;6786;57.632;11.962;2023-05-07T00:58:23;102199.56;;;18.95;34.82
13011;BME280;6786;57.632;11.962;2023-05-07T01:00:52;102199.56;;;18.95;34.99
13011;BME280;6786;57.632;11.962;2023-05-07T01:03:20;102202.25;;;18.95;34.96
13011;BME280;6786;57.632;11.962;2023-05-07T01:05:52;102207.59;;;18.95;34.81
13011;BME280;6786;57.632;11.962;2023-05-07T01:08:23;102205.91;;;18.94;34.93
13011;BME280;6786;57.632;11.962;2023-05-07T01:10:54;102203.22;;;18.94;34.90
13011;BME280;6786;57.632;11.962;2023-05-07T01:13:23;102200.63;;;18.92;34.86
13011;BME280;6786;57.632;11.962;2023-05-07T01:15:52;102213.94;;;18.94;34.96
13011;BME280;6786;57.632;11.962;2023-05-07T01:18:20;102204.94;;;18.95;34.88
13011;BME280;6786;57.632;11.962;2023-05-07T01:20:49;102204.94;;;18.95;34.85
13011;BME280;6786;57.632;11.962;2023-05-07T01:23:18;102215.66;;;18.95;34.89
13011;BME280;6786;57.632;11.962;2023-05-07T01:25:51;102206.63;;;18.96;34.90
13011;BME280;6786;57.632;11.962;2023-05-07T01:28:19;102136.91;;;18.43;34.99
13011;BME280;6786;57.632;11.962;2023-05-07T01:31:00;102210.28;;;18.95;34.79
13011;BME280;6786;57.632;11.962;2023-05-07T01:33:33;102146.94;;;18.53;34.85
13011;BME280;6786;57.632;11.962;2023-05-07T01:36:03;102213.94;;;18.94;34.82
13011;BME280;6786;57.632;11.962;2023-05-07T01:38:36;102233.63;;;18.93;34.84
13011;BME280;6786;57.632;11.962;2023-05-07T01:41:08;102210.47;;;18.92;34.72
13011;BME280;6786;57.632;11.962;2023-05-07T01:43:36;102205.13;;;18.92;34.85
13011;BME280;6786;57.632;11.962;2023-05-07T01:46:05;102214.88;;;18.93;34.79
13011;BME280;6786;57.632;11.962;2023-05-07T01:48:34;102209.63;;;18.91;34.83
13011;BME280;6786;57.632;11.962;2023-05-07T01:51:04;102128.09;;;18.41;34.57
13011;BME280;6786;57.632;11.962;2023-05-07T01:53:37;102221.19;;;18.92;34.74
13011;BME280;6786;57.632;11.962;2023-05-07T01:56:06;102053.91;;;18.01;34.76
13011;BME280;6786;57.632;11.962;2023-05-07T01:58:34;102221.19;;;18.92;34.83
13011;BME280;6786;57.632;11.962;2023-05-07T02:01:03;102217.56;;;18.93;34.84
13011;BME280;6786;57.632;11.962;2023-05-07T02:03:31;102229.13;;;18.93;34.72
13011;BME280;6786;57.632;11.962;2023-05-07T02:05:59;102225.59;;;18.93;34.72
13011;BME280;6786;57.632;11.962;2023-05-07T02:08:28;102234.50;;;18.93;34.68
13011;BME280;6786;57.632;11.962;2023-05-07T02:10:58;102220.53;;;18.88;34.72
13011;BME280;6786;57.632;11.962;2023-05-07T02:13:28;102229.13;;;18.93;34.66
13011;BME280;6786;57.632;11.962;2023-05-07T02:15:57;102222.91;;;18.93;34.69
13011;BME280;6786;57.632;11.962;2023-05-07T02:18:25;102222.91;;;18.93;34.73
13011;BME280;6786;57.632;11.962;2023-05-07T02:20:54;102228.28;;;18.93;34.73
13011;BME280;6786;57.632;11.962;2023-05-07T02:23:22;102188.31;;;18.76;34.79
13011;BME280;6786;57.632;11.962;2023-05-07T02:25:51;102214.13;;;18.91;34.67
13011;BME280;6786;57.632;11.962;2023-05-07T02:28:20;102211.34;;;18.92;34.66
13011;BME280;6786;57.632;11.962;2023-05-07T02:30:48;102221.19;;;18.92;34.62
13011;BME280;6786;57.632;11.962;2023-05-07T02:33:17;102228.28;;;18.93;34.78
13011;BME280;6786;57.632;11.962;2023-05-07T02:35:45;102215.84;;;18.92;34.65
13011;BME280;6786;57.632;11.962;2023-05-07T02:38:13;102215.84;;;18.92;34.71
13011;BME280;6786;57.632;11.962;2023-05-07T02:40:41;102221.19;;;18.92;34.69
13011;BME280;6786;57.632;11.962;2023-05-07T02:43:09;102215.84;;;18.92;34.67
13011;BME280;6786;57.632;11.962;2023-05-07T02:45:39;102205.63;;;18.84;34.59
13011;BME280;6786;57.632;11.962;2023-05-07T02:48:07;102222.16;;;18.91;34.64
13011;BME280;6786;57.632;11.962;2023-05-07T02:50:35;102224.84;;;18.91;34.67
13011;BME280;6786;57.632;11.962;2023-05-07T02:53:04;102223.31;;;18.87;34.57
13011;BME280;6786;57.632;11.962;2023-05-07T02:55:32;102228.38;;;18.91;34.64
13011;BME280;6786;57.632;11.962;2023-05-07T02:58:00;102228.66;;;18.87;34.66
13011;BME280;6786;57.632;11.962;2023-05-07T03:00:29;102231.16;;;18.90;34.65
13011;BME280;6786;57.632;11.962;2023-05-07T03:02:59;102230.22;;;18.91;34.67
13011;BME280;6786;57.632;11.962;2023-05-07T03:05:27;102196.84;;;18.68;34.56
13011;BME280;6786;57.632;11.962;2023-05-07T03:07:55;102143.41;;;18.39;34.71
13011;BME280;6786;57.632;11.962;2023-05-07T03:10:23;102232.88;;;18.91;34.67
13011;BME280;6786;57.632;11.962;2023-05-07T03:12:51;102224.84;;;18.91;34.54
13011;BME280;6786;57.632;11.962;2023-05-07T03:15:19;102232.78;;;18.92;34.57
13011;BME280;6786;57.632;11.962;2023-05-07T03:17:48;102220.22;;;18.93;34.60
13011;BME280;6786;57.632;11.962;2023-05-07T03:20:18;102223.00;;;18.91;34.51
13011;BME280;6786;57.632;11.962;2023-05-07T03:22:46;102204.19;;;18.79;34.64
13011;BME280;6786;57.632;11.962;2023-05-07T03:25:15;102220.44;;;18.90;34.54
13011;BME280;6786;57.632;11.962;2023-05-07T03:27:43;102223.09;;;18.90;34.54
13011;BME280;6786;57.632;11.962;2023-05-07T03:30:12;102223.09;;;18.90;34.57
13011;BME280;6786;57.632;11.962;2023-05-07T03:32:40;102223.09;;;18.90;34.69
13011;BME280;6786;57.632;11.962;2023-05-07T03:35:08;102223.09;;;18.90;34.57
13011;BME280;6786;57.632;11.962;2023-05-07T03:37:39;102224.84;;;18.91;34.57
13011;BME280;6786;57.632;11.962;2023-05-07T03:40:08;102197.09;;;18.78;34.58
13011;BME280;6786;57.632;11.962;2023-05-07T03:42:37;102224.84;;;18.91;34.59
13011;BME280;6786;57.632;11.962;2023-05-07T03:45:07;102223.97;;;18.90;34.63
13011;BME280;6786;57.632;11.962;2023-05-07T03:47:35;102222.28;;;18.89;34.58
13011;BME280;6786;57.632;11.962;2023-05-07T03:50:04;102136.75;;;18.30;34.52
13011;BME280;6786;57.632;11.962;2023-05-07T03:52:32;102226.75;;;18.89;34.56
13011;BME280;6786;57.632;11.962;2023-05-07T03:55:02;102228.47;;;18.90;34.48
13011;BME280;6786;57.632;11.962;2023-05-07T03:57:32;102231.16;;;18.90;34.54
13011;BME280;6786;57.632;11.962;2023-05-07T04:00:00;102233.81;;;18.90;34.35
13011;BME280;6786;57.632;11.962;2023-05-07T04:02:30;102222.28;;;18.89;34.46
13011;BME280;6786;57.632;11.962;2023-05-07T04:04:59;102222.28;;;18.89;34.46
13011;BME280;6786;57.632;11.962;2023-05-07T04:07:27;102226.19;;;18.84;34.45
13011;BME280;6786;57.632;11.962;2023-05-07T04:09:55;102226.75;;;18.89;34.41
13011;BME280;6786;57.632;11.962;2023-05-07T04:12:27;102238.44;;;18.88;34.50
13011;BME280;6786;57.632;11.962;2023-05-07T04:14:55;102232.13;;;18.89;34.45
13011;BME280;6786;57.632;11.962;2023-05-07T04:17:24;102233.81;;;18.90;34.54
13011;BME280;6786;57.632;11.962;2023-05-07T04:19:52;102224.94;;;18.89;34.44
13011;BME280;6786;57.632;11.962;2023-05-07T04:22:20;102142.78;;;18.34;34.40
13011;BME280;6786;57.632;11.962;2023-05-07T04:24:48;102229.34;;;18.90;34.47
13011;BME280;6786;57.632;11.962;2023-05-07T04:27:16;102224.19;;;18.87;34.36
13011;BME280;6786;57.632;11.962;2023-05-07T04:29:46;102228.47;;;18.90;34.49
13011;BME280;6786;57.632;11.962;2023-05-07T04:32:15;102236.50;;;18.90;34.47
13011;BME280;6786;57.632;11.962;2023-05-07T04:34:43;102239.19;;;18.90;34.50
13011;BME280;6786;57.632;11.962;2023-05-07T04:37:11;102235.56;;;18.91;34.37
13011;BME280;6786;57.632;11.962;2023-05-07T04:39:39;102231.53;;;18.84;34.29
13011;BME280;6786;57.632;11.962;2023-05-07T04:42:07;102247.22;;;18.90;34.51
13011;BME280;6786;57.632;11.962;2023-05-07T04:44:36;102187.09;;;18.53;34.37
13011;BME280;6786;57.632;11.962;2023-05-07T04:47:06;102243.59;;;18.91;34.56
13011;BME280;6786;57.632;11.962;2023-05-07T04:49:34;102246.28;;;18.91;34.34
13011;BME280;6786;57.632;11.962;2023-05-07T04:52:02;102247.13;;;18.91;34.49
13011;BME280;6786;57.632;11.962;2023-05-07T04:54:31;102220.38;;;18.77;34.42
13011;BME280;6786;57.632;11.962;2023-05-07T04:56:59;102248.00;;;18.92;34.46
13011;BME280;6786;57.632;11.962;2023-05-07T04:59:27;102246.28;;;18.91;34.43
13011;BME280;6786;57.632;11.962;2023-05-07T05:01:56;102248.00;;;18.92;34.48
13011;BME280;6786;57.632;11.962;2023-05-07T05:04:26;102206.22;;;18.61;34.39
13011;BME280;6786;57.632;11.962;2023-05-07T05:06:54;102241.13;;;18.88;34.43
13011;BME280;6786;57.632;11.962;2023-05-07T05:09:22;102170.34;;;18.50;34.34
13011;BME280;6786;57.632;11.962;2023-05-07T05:11:50;102177.63;;;18.48;34.41
13011;BME280;6786;57.632;11.962;2023-05-07T05:14:18;102225.63;;;18.79;34.42
13011;BME280;6786;57.632;11.962;2023-05-07T05:16:50;102239.84;;;18.93;34.39
13011;BME280;6786;57.632;11.962;2023-05-07T05:19:20;102244.34;;;18.93;34.34
13011;BME280;6786;57.632;11.962;2023-05-07T05:21:49;102239.19;;;18.90;34.42
13011;BME280;6786;57.632;11.962;2023-05-07T05:24:17;102242.53;;;18.93;34.43
13011;BME280;6786;57.632;11.962;2023-05-07T05:26:46;102247.03;;;18.93;34.08
13011;BME280;6786;57.632;11.962;2023-05-07T05:29:14;102244.34;;;18.93;34.39
13011;BME280;6786;57.632;11.962;2023-05-07T05:31:43;102172.38;;;18.46;34.49
13011;BME280;6786;57.632;11.962;2023-05-07T05:34:11;102223.97;;;18.76;34.18
13011;BME280;6786;57.632;11.962;2023-05-07T05:36:39;102247.91;;;18.93;34.42
13011;BME280;6786;57.632;11.962;2023-05-07T05:39:09;102250.56;;;18.93;34.36
13011;BME280;6786;57.632;11.962;2023-05-07T05:41:37;102256.72;;;18.95;34.35
13011;BME280;6786;57.632;11.962;2023-05-07T05:44:05;102250.56;;;18.93;34.35
13011;BME280;6786;57.632;11.962;2023-05-07T05:46:34;102174.19;;;18.46;34.28
13011;BME280;6786;57.632;11.962;2023-05-07T05:49:03;102254.88;;;18.96;34.25
13011;BME280;6786;57.632;11.962;2023-05-07T05:51:31;102246.84;;;18.96;34.23
13011;BME280;6786;57.632;11.962;2023-05-07T05:53:59;102250.47;;;18.95;34.38
13011;BME280;6786;57.632;11.962;2023-05-07T05:56:28;102253.16;;;18.95;34.17
13011;BME280;6786;57.632;11.962;2023-05-07T05:58:57;102249.72;;;18.93;34.22
13011;BME280;6786;57.632;11.962;2023-05-07T06:01:26;102255.84;;;18.95;34.33
13011;BME280;6786;57.632;11.962;2023-05-07T06:03:54;102245.50;;;18.89;34.27
13011;BME280;6786;57.632;11.962;2023-05-07T06:06:22;102262.34;;;18.91;34.55
13011;BME280;6786;57.632;11.962;2023-05-07T06:08:50;102256.72;;;18.95;34.40
13011;BME280;6786;57.632;11.962;2023-05-07T06:11:18;102259.50;;;18.94;34.29
13011;BME280;6786;57.632;11.962;2023-05-07T06:13:49;102255.06;;;18.93;34.25
13011;BME280;6786;57.632;11.962;2023-05-07T06:16:17;102263.28;;;18.90;34.35
13011;BME280;6786;57.632;11.962;2023-05-07T06:18:45;102265.78;;;18.93;34.16
13011;BME280;6786;57.632;11.962;2023-05-07T06:21:13;102264.84;;;18.94;34.19
13011;BME280;6786;57.632;11.962;2023-05-07T06:23:42;102272.88;;;18.94;34.33
13011;BME280;6786;57.632;11.962;2023-05-07T06:26:10;102266.75;;;18.92;34.40
13011;BME280;6786;57.632;11.962;2023-05-07T06:28:38;102271.34;;;18.90;34.36
13011;BME280;6786;57.632;11.962;2023-05-07T06:31:22;102264.84;;;18.94;34.14
13011;BME280;6786;57.632;11.962;2023-05-07T06:33:50;102272.88;;;18.94;34.23
13011;BME280;6786;57.632;11.962;2023-05-07T06:36:21;102263.88;;;18.95;34.18
13011;BME280;6786;57.632;11.962;2023-05-07T06:38:49;102265.59;;;18.96;34.18
13011;BME280;6786;57.632;11.962;2023-05-07T06:41:17;102263.69;;;18.98;34.34
13011;BME280;6786;57.632;11.962;2023-05-07T06:43:45;102264.56;;;18.98;34.32
13011;BME280;6786;57.632;11.962;2023-05-07T06:46:13;102270.75;;;18.99;34.37
13011;BME280;6786;57.632;11.962;2023-05-07T06:48:43;102276.13;;;18.99;34.25
13011;BME280;6786;57.632;11.962;2023-05-07T06:51:11;102287.69;;;18.99;34.37
13011;BME280;6786;57.632;11.962;2023-05-07T06:53:39;102263.88;;;18.95;34.35
13011;BME280;6786;57.632;11.962;2023-05-07T06:56:07;102281.47;;;18.99;34.26
13011;BME280;6786;57.632;11.962;2023-05-07T06:58:37;102125.22;;;18.02;34.52
13011;BME280;6786;57.632;11.962;2023-05-07T07:01:05;102277.94;;;18.98;34.27
13011;BME280;6786;57.632;11.962;2023-05-07T07:03:33;102143.16;;;18.00;34.18
13011;BME280;6786;57.632;11.962;2023-05-07T07:06:03;102288.75;;;18.97;34.02
13011;BME280;6786;57.632;11.962;2023-05-07T07:08:32;102275.16;;;18.86;34.06
13011;BME280;6786;57.632;11.962;2023-05-07T07:11:01;102283.41;;;18.97;34.15
13011;BME280;6786;57.632;11.962;2023-05-07T07:13:29;102284.25;;;18.97;34.23
13011;BME280;6786;57.632;11.962;2023-05-07T07:15:57;102272.69;;;18.97;34.18
13011;BME280;6786;57.632;11.962;2023-05-07T07:18:27;102280.72;;;18.97;34.13
13011;BME280;6786;57.632;11.962;2023-05-07T07:20:57;102199.81;;;18.50;34.08
13011;BME280;6786;57.632;11.962;2023-05-07T07:23:27;102272.88;;;18.94;34.08
13011;BME280;6786;57.632;11.962;2023-05-07T07:25:55;102187.19;;;18.38;34.20
13011;BME280;6786;57.632;11.962;2023-05-07T07:28:23;102281.66;;;18.96;34.19
13011;BME280;6786;57.632;11.962;2023-05-07T07:30:51;102270.84;;;18.97;34.04
13011;BME280;6786;57.632;11.962;2023-05-07T07:33:19;102198.69;;;18.54;34.10
13011;BME280;6786;57.632;11.962;2023-05-07T07:35:47;102275.19;;;19.00;34.25
13011;BME280;6786;57.632;11.962;2023-05-07T07:38:15;102279.56;;;19.01;34.10
13011;BME280;6786;57.632;11.962;2023-05-07T07:40:47;102270.94;;;18.96;34.14
13011;BME280;6786;57.632;11.962;2023-05-07T07:43:15;102283.03;;;19.03;34.04
13011;BME280;6786;57.632;11.962;2023-05-07T07:45:43;102163.25;;;18.21;34.28
13011;BME280;6786;57.632;11.962;2023-05-07T07:48:14;102282.81;;;19.06;34.08
13011;BME280;6786;57.632;11.962;2023-05-07T07:50:42;102276.59;;;19.05;34.02
13011;BME280;6786;57.632;11.962;2023-05-07T07:53:12;102271.34;;;19.04;33.95
13011;BME280;6786;57.632;11.962;2023-05-07T07:55:40;102272.50;;;19.00;34.02
13011;BME280;6786;57.632;11.962;2023-05-07T07:58:09;102243.22;;;18.83;33.83
13011;BME280;6786;57.632;11.962;2023-05-07T08:00:37;102288.56;;;19.00;34.26
13011;BME280;6786;57.632;11.962;2023-05-07T08:03:05;102274.22;;;19.01;33.84
13011;BME280;6786;57.632;11.962;2023-05-07T08:05:34;102279.56;;;19.01;33.96
13011;BME280;6786;57.632;11.962;2023-05-07T08:08:03;102274.22;;;19.01;33.85
13011;BME280;6786;57.632;11.962;2023-05-07T08:10:32;102274.22;;;19.01;33.97
13011;BME280;6786;57.632;11.962;2023-05-07T08:13:01;102272.41;;;19.01;34.07
13011;BME280;6786;57.632;11.962;2023-05-07T08:15:32;102250.56;;;18.93;34.03
13011;BME280;6786;57.632;11.962;2023-05-07T08:18:01;102263.50;;;19.01;34.00
13011;BME280;6786;57.632;11.962;2023-05-07T08:20:29;102263.50;;;19.01;34.02
13011;BME280;6786;57.632;11.962;2023-05-07T08:22:58;102267.13;;;19.00;34.00
13011;BME280;6786;57.632;11.962;2023-05-07T08:25:26;102260.91;;;18.99;34.03
13011;BME280;6786;57.632;11.962;2023-05-07T08:27:54;102272.50;;;19.00;33.91
13011;BME280;6786;57.632;11.962;2023-05-07T08:30:22;102269.81;;;19.00;34.04
13011;BME280;6786;57.632;11.962;2023-05-07T08:32:51;102265.38;;;18.99;33.98
13011;BME280;6786;57.632;11.962;2023-05-07T08:35:20;102256.81;;;18.94;33.82
13011;BME280;6786;57.632;11.962;2023-05-07T08:37:48;102276.88;;;19.01;33.83
13011;BME280;6786;57.632;11.962;2023-05-07T08:40:16;102283.41;;;18.97;33.91
13011;BME280;6786;57.632;11.962;2023-05-07T08:42:48;102271.44;;;19.02;33.96
13011;BME280;6786;57.632;11.962;2023-05-07T08:45:17;102248.19;;;18.89;33.86
13011;BME280;6786;57.632;11.962;2023-05-07T08:47:50;102271.72;;;18.98;33.90
13011;BME280;6786;57.632;11.962;2023-05-07T08:50:21;102173.00;;;18.36;33.75
13011;BME280;6786;57.632;11.962;2023-05-07T08:52:49;102279.09;;;18.94;33.65
13011;BME280;6786;57.632;11.962;2023-05-07T08:55:18;102272.09;;;18.92;33.52
13011;BME280;6786;57.632;11.962;2023-05-07T08:57:52;102207.81;;;18.36;33.17
13011;BME280;6786;57.632;11.962;2023-05-07T09:00:22;102278.44;;;18.91;33.35
13011;BME280;6786;57.632;11.962;2023-05-07T09:02:52;102257.56;;;18.82;33.26
13011;BME280;6786;57.632;11.962;2023-05-07T09:05:39;102274.09;;;18.88;32.19
13011;BME280;6786;57.632;11.962;2023-05-07T09:08:09;102168.88;;;18.30;33.20
13011;BME280;6786;57.632;11.962;2023-05-07T09:10:39;102276.69;;;18.90;32.93
13011;BME280;6786;57.632;11.962;2023-05-07T09:13:07;102244.84;;;18.71;32.92
13011;BME280;6786;57.632;11.962;2023-05-07T09:15:42;102198.28;;;18.46;32.96
13011;BME280;6786;57.632;11.962;2023-05-07T09:18:13;102273.06;;;18.91;33.05
13011;BME280;6786;57.632;11.962;2023-05-07T09:20:49;102258.31;;;18.84;32.67
13011;BME280;6786;57.632;11.962;2023-05-07T09:23:31;102275.66;;;18.92;33.05
13011;BME280;6786;57.632;11.962;2023-05-07T09:26:00;102231.94;;;18.64;33.05
13011;BME280;6786;57.632;11.962;2023-05-07T09:28:32;102161.56;;;18.20;32.95
13011;BME280;6786;57.632;11.962;2023-05-07T09:31:09;102274.78;;;18.92;33.10
13011;BME280;6786;57.632;11.962;2023-05-07T09:33:40;102176.81;;;18.32;33.28
13011;BME280;6786;57.632;11.962;2023-05-07T09:36:10;102116.13;;;18.04;33.10
13011;BME280;6786;57.632;11.962;2023-05-07T09:38:38;102272.88;;;18.94;33.10
13011;BME280;6786;57.632;11.962;2023-05-07T09:41:09;102249.44;;;18.83;32.95
13011;BME280;6786;57.632;11.962;2023-05-07T09:43:39;102227.72;;;18.74;33.11
13011;BME280;6786;57.632;11.962;2023-05-07T09:46:11;102260.22;;;18.96;33.04
13011;BME280;6786;57.632;11.962;2023-05-07T09:48:41;102258.53;;;18.95;33.10
13011;BME280;6786;57.632;11.962;2023-05-07T09:51:21;102260.22;;;18.96;32.83
13011;BME280;6786;57.632;11.962;2023-05-07T09:53:52;102261.97;;;18.97;33.21
13011;BME280;6786;57.632;11.962;2023-05-07T09:56:21;102252.97;;;18.98;33.48
13011;BME280;6786;57.632;11.962;2023-05-07T09:58:49;102155.94;;;18.38;33.33
13011;BME280;6786;57.632;11.962;2023-05-07T10:01:24;102249.31;;;18.99;33.29
13011;BME280;6786;57.632;11.962;2023-05-07T10:04:02;102249.31;;;18.99;33.21
13011;BME280;6786;57.632;11.962;2023-05-07T10:06:32;102149.69;;;18.38;33.23
13011;BME280;6786;57.632;11.962;2023-05-07T10:09:01;102218.91;;;18.86;33.10
13011;BME280;6786;57.632;11.962;2023-05-07T10:11:30;102259.84;;;19.02;33.16
13011;BME280;6786;57.632;11.962;2023-05-07T10:14:00;102104.97;;;18.12;33.30
13011;BME280;6786;57.632;11.962;2023-05-07T10:16:32;102247.41;;;19.01;33.22
13011;BME280;6786;57.632;11.962;2023-05-07T10:19:03;102252.09;;;18.97;33.09
13011;BME280;6786;57.632;11.962;2023-05-07T10:21:36;102246.63;;;18.99;33.21
13011;BME280;6786;57.632;11.962;2023-05-07T10:24:05;102251.06;;;19.00;33.30
13011;BME280;6786;57.632;11.962;2023-05-07T10:26:35;102237.28;;;18.92;33.17
13011;BME280;6786;57.632;11.962;2023-05-07T10:29:07;102252.78;;;19.01;32.98
13011;BME280;6786;57.632;11.962;2023-05-07T10:31:55;102252.78;;;19.01;33.02
13011;BME280;6786;57.632;11.962;2023-05-07T10:34:39;102245.69;;;19.00;33.29
13011;BME280;6786;57.632;11.962;2023-05-07T10:37:11;102228.84;;;18.84;33.27
13011;BME280;6786;57.632;11.962;2023-05-07T10:39:40;102259.09;;;19.00;33.13
13011;BME280;6786;57.632;11.962;2023-05-07T10:42:09;102242.16;;;18.99;33.15
13011;BME280;6786;57.632;11.962;2023-05-07T10:44:37;102225.97;;;18.87;33.21
13011;BME280;6786;57.632;11.962;2023-05-07T10:47:06;102243.41;;;18.94;33.29
13011;BME280;6786;57.632;11.962;2023-05-07T10:49:37;102252.78;;;19.01;33.08
13011;BME280;6786;57.632;11.962;2023-05-07T10:52:14;102238.50;;;19.00;33.17
13011;BME280;6786;57.632;11.962;2023-05-07T10:54:43;102170.84;;;18.56;33.30
13011;BME280;6786;57.632;11.962;2023-05-07T10:57:33;102242.06;;;19.01;32.99
13011;BME280;6786;57.632;11.962;2023-05-07T11:00:03;102236.69;;;19.01;33.35
13011;BME280;6786;57.632;11.962;2023-05-07T11:03:05;102242.06;;;19.01;32.97
13011;BME280;6786;57.632;11.962;2023-05-07T11:05:35;102236.69;;;19.01;33.34
13011;BME280;6786;57.632;11.962;2023-05-07T11:08:05;102164.59;;;18.56;33.07
13011;BME280;6786;57.632;11.962;2023-05-07T11:10:51;102244.72;;;19.01;33.19
13011;BME280;6786;57.632;11.962;2023-05-07T11:13:42;102247.41;;;19.01;33.13
13011;BME280;6786;57.632;11.962;2023-05-07T11:16:18;102224.47;;;18.97;33.26
13011;BME280;6786;57.632;11.962;2023-05-07T11:18:48;102234.50;;;18.93;33.30
13011;BME280;6786;57.632;11.962;2023-05-07T11:21:33;102112.56;;;18.32;33.09
13011;BME280;6786;57.632;11.962;2023-05-07T11:24:04;102155.84;;;18.54;33.41
13011;BME280;6786;57.632;11.962;2023-05-07T11:26:48;102234.09;;;18.99;33.12
13011;BME280;6786;57.632;11.962;2023-05-07T11:29:18;102234.97;;;19.00;33.42
13011;BME280;6786;57.632;11.962;2023-05-07T11:31:49;102226.56;;;18.92;33.33
13011;BME280;6786;57.632;11.962;2023-05-07T11:34:22;102234.97;;;19.00;33.35
13011;BME280;6786;57.632;11.962;2023-05-07T11:36:51;102114.72;;;18.27;33.33
13011;BME280;6786;57.632;11.962;2023-05-07T11:39:38;102226.16;;;18.98;33.25
13011;BME280;6786;57.632;11.962;2023-05-07T11:42:06;102140.16;;;18.48;33.22
13011;BME280;6786;57.632;11.962;2023-05-07T11:44:44;102233.25;;;18.99;33.36
13011;BME280;6786;57.632;11.962;2023-05-07T11:47:17;102236.88;;;18.98;33.43
13011;BME280;6786;57.632;11.962;2023-05-07T11:49:47;102147.03;;;18.52;33.36
13011;BME280;6786;57.632;11.962;2023-05-07T11:52:15;102225.19;;;18.99;33.36
13011;BME280;6786;57.632;11.962;2023-05-07T11:54:50;102224.25;;;19.00;33.50
13011;BME280;6786;57.632;11.962;2023-05-07T11:57:19;102229.63;;;19.00;33.39
13011;BME280;6786;57.632;11.962;2023-05-07T11:59:47;102219.75;;;19.00;33.55
13011;BME280;6786;57.632;11.962;2023-05-07T12:02:17;102137.47;;;18.48;33.34
13011;BME280;6786;57.632;11.962;2023-05-07T12:04:46;102205.69;;;18.97;33.45
13011;BME280;6786;57.632;11.962;2023-05-07T12:07:15;102214.38;;;19.00;33.40
13011;BME280;6786;57.632;11.962;2023-05-07T12:09:44;102210.75;;;19.01;33.46
13011;BME280;6786;57.632;11.962;2023-05-07T12:12:14;102049.16;;;18.06;33.64
13011;BME280;6786;57.632;11.962;2023-05-07T12:14:45;102201.75;;;19.02;33.28
13011;BME280;6786;57.632;11.962;2023-05-07T12:17:14;102202.81;;;19.00;33.43
13011;BME280;6786;57.632;11.962;2023-05-07T12:19:44;102194.59;;;18.89;33.43
13011;BME280;6786;57.632;11.962;2023-05-07T12:22:13;102212.56;;;19.01;33.46
13011;BME280;6786;57.632;11.962;2023-05-07T12:24:43;102222.31;;;19.02;33.34
13011;BME280;6786;57.632;11.962;2023-05-07T12:27:14;102211.59;;;19.02;33.45
13011;BME280;6786;57.632;11.962;2023-05-07T12:29:44;102205.31;;;19.03;33.55
13011;BME280;6786;57.632;11.962;2023-05-07T12:32:14;102219.66;;;19.02;33.49
13011;BME280;6786;57.632;11.962;2023-05-07T12:34:43;102199.97;;;18.89;33.44
13011;BME280;6786;57.632;11.962;2023-05-07T12:37:12;102222.31;;;19.02;33.59
13011;BME280;6786;57.632;11.962;2023-05-07T12:39:44;102083.94;;;18.06;33.40
13011;BME280;6786;57.632;11.962;2023-05-07T12:42:16;102205.31;;;18.89;33.57
13011;BME280;6786;57.632;11.962;2023-05-07T12:44:50;102214.69;;;18.96;33.65
13011;BME280;6786;57.632;11.962;2023-05-07T12:47:20;102232.22;;;19.01;33.69
13011;BME280;6786;57.632;11.962;2023-05-07T12:49:48;102222.72;;;18.96;33.71
13011;BME280;6786;57.632;11.962;2023-05-07T12:52:16;102228.06;;;18.96;33.71
13011;BME280;6786;57.632;11.962;2023-05-07T12:54:45;102236.69;;;19.01;33.67
13011;BME280;6786;57.632;11.962;2023-05-07T12:57:13;102153.91;;;18.56;33.59
13011;BME280;6786;57.632;11.962;2023-05-07T12:59:42;102236.69;;;19.01;33.68
13011;BME280;6786;57.632;11.962;2023-05-07T13:02:11;102117.09;;;18.31;33.68
13011;BME280;6786;57.632;11.962;2023-05-07T13:04:39;102162.81;;;18.56;33.76